Time;durP1;ratioP1;P1;durP2;ratioP2;P2;SDS_P1;SDS_P2;PMS_P1;PMS_P2;Temp;Humidity;BMP_temperature;BMP_pressure;BME280_temperature;BME280_humidity;BME280_pressure;Samples;Min_cycle;Max_cycle;Signal;HPM_P1;HPM_P2
2022/06/24 00:00:40;;;;;;;3.87;2.33;;;27.10;53.20;;;;;;5064345;28;20216;-66
2022/06/24 00:03:16;;;;;;;3.80;2.70;;;27.10;53.20;;;;;;5064971;28;20217;-66
2022/06/24 00:05:43;;;;;;;2.53;2.33;;;27.10;53.10;;;;;;5066700;28;20197;-67
2022/06/24 00:08:10;;;;;;;6.83;2.63;;;27.10;53.10;;;;;;5065850;28;20197;-67
2022/06/24 00:10:37;;;;;;;2.67;2.30;;;27.10;53.10;;;;;;5054064;28;20209;-67
2022/06/24 00:13:08;;;;;;;2.73;2.30;;;27.10;53.30;;;;;;5067365;28;20651;-65
2022/06/24 00:15:39;;;;;;;3.87;2.50;;;27.10;52.90;;;;;;5066604;28;20209;-66
2022/06/24 00:18:19;;;;;;;2.60;2.40;;;27.10;52.70;;;;;;5049171;28;20198;-65
2022/06/24 00:20:50;;;;;;;3.17;2.50;;;27.10;52.80;;;;;;5063469;28;20220;-65
2022/06/24 00:23:21;;;;;;;3.43;2.70;;;27.10;52.70;;;;;;5066914;28;20229;-66
2022/06/24 00:25:52;;;;;;;3.00;2.40;;;27.00;52.60;;;;;;5066027;28;20200;-66
2022/06/24 00:28:25;;;;;;;3.60;2.37;;;27.10;52.70;;;;;;5064511;28;20682;-64
2022/06/24 00:30:54;;;;;;;4.20;2.40;;;27.00;52.80;;;;;;5055036;28;20186;-65
2022/06/24 00:33:23;;;;;;;3.00;2.50;;;27.00;52.80;;;;;;5063423;28;20220;-67
2022/06/24 00:35:56;;;;;;;4.73;2.57;;;27.00;52.90;;;;;;5052608;28;20198;-67
2022/06/24 00:38:26;;;;;;;2.30;2.10;;;27.10;52.90;;;;;;5063891;28;20190;-66
2022/06/24 00:41:00;;;;;;;5.33;2.60;;;27.10;53.00;;;;;;5064939;28;20193;-66
2022/06/24 00:43:34;;;;;;;2.90;2.60;;;27.00;52.80;;;;;;5055295;28;20228;-65
2022/06/24 00:46:25;;;;;;;3.07;2.53;;;27.00;52.90;;;;;;5053220;28;20221;-65
2022/06/24 00:48:54;;;;;;;3.67;2.57;;;27.00;52.90;;;;;;5066514;28;20288;-67
2022/06/24 00:51:22;;;;;;;4.40;2.53;;;27.00;52.90;;;;;;5066166;28;20200;-66
2022/06/24 00:53:56;;;;;;;3.37;2.67;;;27.00;52.90;;;;;;5066279;28;20200;-67
2022/06/24 00:56:31;;;;;;;3.37;2.70;;;27.00;52.80;;;;;;5061564;28;20204;-66
2022/06/24 00:59:09;;;;;;;3.63;2.67;;;27.00;53.50;;;;;;5066573;28;20197;-65
2022/06/24 01:01:42;;;;;;;3.00;2.27;;;27.00;52.90;;;;;;5066595;28;20189;-66
2022/06/24 01:04:14;;;;;;;3.03;2.30;;;27.00;52.80;;;;;;5046720;28;20215;-66
2022/06/24 01:06:45;;;;;;;3.87;3.00;;;27.00;52.80;;;;;;5065809;28;20193;-65
2022/06/24 01:09:19;;;;;;;3.57;2.73;;;27.00;52.90;;;;;;5046181;28;20553;-66
2022/06/24 01:11:51;;;;;;;3.13;2.27;;;27.00;52.80;;;;;;5066638;28;20197;-66
2022/06/24 01:14:20;;;;;;;3.80;2.60;;;27.00;52.90;;;;;;5036752;28;20194;-65
2022/06/24 01:16:50;;;;;;;4.40;2.37;;;27.00;52.80;;;;;;5046692;28;20204;-65
2022/06/24 01:19:18;;;;;;;4.03;2.20;;;27.00;52.80;;;;;;5038699;28;20264;-65
2022/06/24 01:21:53;;;;;;;3.07;2.47;;;27.00;52.90;;;;;;5049278;28;20201;-66
2022/06/24 01:24:24;;;;;;;3.30;2.30;;;27.00;52.80;;;;;;5047331;28;20891;-65
2022/06/24 01:26:59;;;;;;;4.00;2.30;;;27.00;52.80;;;;;;5048140;28;20651;-66
2022/06/24 01:29:26;;;;;;;3.00;2.40;;;27.00;52.70;;;;;;5048535;28;20222;-66
2022/06/24 01:31:55;;;;;;;3.27;2.50;;;27.00;52.80;;;;;;5036367;28;20630;-66
2022/06/24 01:34:26;;;;;;;3.87;2.97;;;27.00;52.70;;;;;;5064696;28;20255;-66
2022/06/24 01:36:56;;;;;;;4.57;2.50;;;27.00;52.90;;;;;;5038850;28;20247;-66
2022/06/24 01:39:26;;;;;;;4.30;3.00;;;27.00;52.80;;;;;;5052197;28;20193;-65
2022/06/24 01:41:59;;;;;;;4.03;2.30;;;26.90;52.70;;;;;;5070061;28;20201;-65
2022/06/24 01:44:28;;;;;;;3.37;2.57;;;27.00;52.90;;;;;;5030780;28;20205;-66
2022/06/24 01:46:56;;;;;;;6.30;2.80;;;27.00;52.90;;;;;;5022694;28;20199;-66
2022/06/24 01:49:25;;;;;;;4.00;2.47;;;26.90;52.80;;;;;;5053398;28;20809;-66
2022/06/24 01:52:01;;;;;;;3.80;2.60;;;26.90;52.70;;;;;;5069328;28;20198;-66
2022/06/24 01:54:36;;;;;;;4.07;2.80;;;26.90;52.70;;;;;;5049689;28;20220;-66
2022/06/24 01:57:07;;;;;;;4.20;2.70;;;26.90;52.70;;;;;;5067321;28;20251;-66
2022/06/24 01:59:36;;;;;;;3.77;3.10;;;26.90;52.70;;;;;;5068998;28;20600;-66
2022/06/24 02:02:08;;;;;;;4.90;2.80;;;27.00;52.90;;;;;;5052345;28;20198;-66
2022/06/24 02:04:54;;;;;;;2.90;2.70;;;26.90;52.80;;;;;;5068521;28;20703;-66
2022/06/24 02:07:24;;;;;;;3.00;2.53;;;26.90;52.80;;;;;;5053856;28;20625;-66
2022/06/24 02:15:36;;;;;;;2.70;2.50;;;26.90;52.70;;;;;;5063247;28;20194;-66
2022/06/24 02:18:05;;;;;;;4.53;2.80;;;26.90;52.70;;;;;;5051563;28;20198;-66
2022/06/24 02:20:38;;;;;;;2.90;2.70;;;26.90;52.70;;;;;;5040458;28;20623;-66
2022/06/24 02:23:13;;;;;;;4.23;2.93;;;26.90;52.70;;;;;;5039039;28;20199;-66
2022/06/24 02:25:47;;;;;;;2.80;2.37;;;26.90;52.70;;;;;;5068260;28;20578;-67
2022/06/24 02:28:17;;;;;;;2.97;2.47;;;26.90;52.70;;;;;;5067803;28;20222;-66
2022/06/24 02:30:47;;;;;;;3.60;2.70;;;26.90;52.80;;;;;;5056593;28;20202;-66
2022/06/24 02:33:32;;;;;;;3.80;2.80;;;26.90;52.70;;;;;;5051631;28;20662;-66
2022/06/24 02:36:06;;;;;;;3.03;2.60;;;26.90;53.30;;;;;;5049648;28;20271;-66
2022/06/24 02:38:37;;;;;;;3.10;2.60;;;26.90;52.60;;;;;;5049828;28;20205;-66
2022/06/24 02:41:14;;;;;;;3.07;2.40;;;26.80;52.60;;;;;;5067859;28;20270;-65
2022/06/24 02:43:44;;;;;;;3.20;2.90;;;26.80;52.70;;;;;;5050352;28;20693;-67
2022/06/24 02:46:17;;;;;;;4.17;2.10;;;26.80;52.70;;;;;;5054705;28;20202;-66
2022/06/24 02:48:46;;;;;;;3.17;2.20;;;26.80;52.70;;;;;;5051344;28;20771;-66
2022/06/24 02:51:20;;;;;;;2.60;2.40;;;26.80;52.70;;;;;;5046183;28;20190;-66
2022/06/24 02:54:00;;;;;;;2.20;2.00;;;26.80;52.70;;;;;;5047602;28;20210;-67
2022/06/24 02:56:35;;;;;;;2.10;1.90;;;26.80;52.70;;;;;;5030073;28;20654;-66
2022/06/24 02:59:15;;;;;;;3.27;2.40;;;26.90;52.70;;;;;;5047727;28;20210;-66
2022/06/24 03:01:47;;;;;;;2.93;2.23;;;26.80;52.70;;;;;;5038588;28;20218;-65
2022/06/24 03:04:18;;;;;;;2.40;2.20;;;26.80;52.70;;;;;;5044315;28;20652;-65
2022/06/24 03:06:47;;;;;;;2.60;2.37;;;26.80;52.70;;;;;;5046821;28;20194;-65
2022/06/24 03:09:15;;;;;;;2.50;2.30;;;26.80;52.70;;;;;;5043170;28;20206;-65
2022/06/24 03:11:42;;;;;;;2.53;2.33;;;26.80;52.70;;;;;;5047315;28;20208;-65
2022/06/24 03:14:12;;;;;;;2.30;2.10;;;26.80;52.70;;;;;;5047146;28;20264;-65
2022/06/24 03:16:41;;;;;;;2.40;2.17;;;26.80;52.60;;;;;;5045011;28;20309;-65
2022/06/24 03:19:12;;;;;;;2.23;2.03;;;26.80;52.70;;;;;;5035752;28;20297;-65
2022/06/24 03:21:56;;;;;;;2.17;1.97;;;26.80;52.70;;;;;;5037250;28;20260;-65
2022/06/24 03:24:25;;;;;;;3.57;2.37;;;26.80;52.70;;;;;;5033700;28;20206;-65
2022/06/24 03:27:09;;;;;;;2.30;2.10;;;26.80;52.70;;;;;;5030562;28;20721;-65
2022/06/24 03:29:38;;;;;;;2.20;2.00;;;26.80;52.60;;;;;;5043901;28;20230;-65
2022/06/24 03:32:05;;;;;;;2.13;1.93;;;26.80;52.70;;;;;;5033522;28;20322;-65
2022/06/24 03:34:34;;;;;;;1.90;1.80;;;26.80;52.70;;;;;;5042364;28;20217;-65
2022/06/24 03:37:04;;;;;;;2.10;1.80;;;26.70;52.60;;;;;;5047378;28;20198;-65
2022/06/24 03:39:35;;;;;;;2.23;1.90;;;26.80;52.70;;;;;;5041749;28;20249;-65
2022/06/24 03:42:06;;;;;;;2.50;2.23;;;26.70;52.60;;;;;;5024688;28;20206;-65
2022/06/24 03:44:35;;;;;;;2.43;1.80;;;26.70;52.60;;;;;;5023073;28;20226;-65
2022/06/24 03:47:02;;;;;;;2.10;1.77;;;26.80;52.70;;;;;;5047656;28;20574;-65
2022/06/24 03:49:29;;;;;;;2.13;1.50;;;26.80;52.70;;;;;;5045130;28;20198;-65
2022/06/24 03:51:57;;;;;;;2.63;1.70;;;26.70;52.60;;;;;;5045303;28;20201;-65
2022/06/24 03:54:29;;;;;;;2.40;1.80;;;26.70;52.70;;;;;;5041903;28;20210;-65
2022/06/24 03:57:00;;;;;;;3.47;1.77;;;26.70;52.70;;;;;;5045943;28;20219;-65
2022/06/24 03:59:27;;;;;;;1.97;1.73;;;26.70;52.80;;;;;;5027972;28;20203;-65
2022/06/24 04:01:58;;;;;;;3.27;2.30;;;26.70;52.80;;;;;;5027644;28;20208;-65
2022/06/24 04:04:28;;;;;;;3.90;1.83;;;26.70;52.90;;;;;;5019459;28;20249;-65
2022/06/24 04:07:00;;;;;;;3.10;1.77;;;26.70;52.90;;;;;;5037881;28;20585;-65
2022/06/24 04:09:30;;;;;;;1.70;1.60;;;26.70;52.90;;;;;;5043416;28;20210;-65
2022/06/24 04:12:02;;;;;;;1.87;1.60;;;26.70;52.90;;;;;;5028834;28;20182;-66
2022/06/24 04:17:20;;;;;;;3.37;1.53;;;26.70;52.90;;;;;;5046772;28;20198;-71
2022/06/24 04:19:52;;;;;;;3.07;1.60;;;26.70;53.80;;;;;;5029331;28;20253;-70
2022/06/24 04:22:25;;;;;;;4.07;1.77;;;26.70;54.40;;;;;;5039059;28;20210;-70
2022/06/24 04:24:56;;;;;;;3.27;1.43;;;26.70;54.60;;;;;;5034243;28;20233;-70
2022/06/24 04:27:25;;;;;;;1.97;1.30;;;26.60;54.70;;;;;;5045797;28;20209;-69
2022/06/24 04:30:01;;;;;;;2.80;1.20;;;26.60;54.80;;;;;;5037504;28;20223;-69
2022/06/24 04:32:33;;;;;;;1.50;1.23;;;26.60;54.90;;;;;;5053639;28;20221;-69
2022/06/24 04:35:15;;;;;;;2.23;1.50;;;26.60;55.00;;;;;;5040619;28;20640;-69
2022/06/24 04:37:46;;;;;;;4.43;1.70;;;26.50;54.90;;;;;;5060177;28;20205;-69
2022/06/24 04:40:17;;;;;;;2.10;1.57;;;26.50;55.00;;;;;;5063755;28;20257;-68
2022/06/24 04:42:46;;;;;;;1.60;1.30;;;26.50;55.00;;;;;;5062312;28;20201;-68
2022/06/24 04:45:17;;;;;;;1.43;1.10;;;26.50;55.10;;;;;;5029345;28;20230;-70
2022/06/24 04:47:44;;;;;;;4.13;1.40;;;26.40;55.10;;;;;;5045131;28;20210;-70
2022/06/24 04:50:16;;;;;;;1.73;1.17;;;26.40;55.10;;;;;;5031588;28;20204;-70
2022/06/24 04:52:48;;;;;;;1.30;1.20;;;26.50;55.20;;;;;;5046068;28;20705;-71
2022/06/24 04:55:17;;;;;;;3.30;1.27;;;26.40;55.10;;;;;;5063354;28;20182;-70
2022/06/24 04:57:44;;;;;;;2.10;1.37;;;26.40;55.10;;;;;;5063566;28;20213;-71
2022/06/24 05:00:11;;;;;;;1.50;1.23;;;26.40;55.20;;;;;;5057577;28;20201;-69
2022/06/24 05:02:38;;;;;;;2.20;1.23;;;26.40;55.20;;;;;;5063122;28;20644;-69
2022/06/24 05:05:06;;;;;;;2.73;1.60;;;26.40;55.40;;;;;;5042749;28;20253;-71
2022/06/24 05:07:32;;;;;;;2.60;1.40;;;26.40;55.60;;;;;;5069044;28;20186;-71
2022/06/24 05:09:59;;;;;;;1.43;1.20;;;26.40;56.00;;;;;;5065277;28;20209;-71
2022/06/24 05:12:26;;;;;;;21.77;7.60;;;26.40;56.20;;;;;;5067769;28;20197;-70
2022/06/24 05:14:54;;;;;;;40.10;12.60;;;26.40;56.20;;;;;;5068649;28;20211;-69
2022/06/24 05:17:26;;;;;;;30.50;8.30;;;26.40;56.40;;;;;;5069982;28;20201;-71
2022/06/24 05:19:58;;;;;;;12.23;4.27;;;26.40;56.50;;;;;;5069485;28;20197;-71
2022/06/24 05:22:29;;;;;;;26.87;10.33;;;26.30;56.40;;;;;;5060713;28;20217;-68
2022/06/24 05:25:01;;;;;;;24.10;7.90;;;26.30;56.50;;;;;;5047264;28;20309;-69
2022/06/24 05:27:33;;;;;;;9.33;4.23;;;26.30;56.50;;;;;;5062421;28;20665;-70
2022/06/24 05:30:06;;;;;;;6.50;2.97;;;26.30;56.50;;;;;;5047782;28;20303;-69
2022/06/24 05:32:36;;;;;;;5.30;2.07;;;26.30;56.50;;;;;;5062969;28;20286;-71
2022/06/24 05:35:08;;;;;;;2.33;1.80;;;26.20;56.50;;;;;;5067537;28;20642;-71
2022/06/24 05:37:37;;;;;;;27.37;7.90;;;26.30;56.70;;;;;;5051895;28;20528;-69
2022/06/24 05:40:06;;;;;;;18.17;6.30;;;26.20;58.00;;;;;;5064124;28;20194;-69
2022/06/24 05:42:40;;;;;;;13.33;4.63;;;26.20;58.40;;;;;;5043549;28;20190;-67
2022/06/24 05:45:12;;;;;;;10.13;3.60;;;26.20;58.70;;;;;;5062278;28;20256;-72
2022/06/24 05:47:42;;;;;;;6.03;3.23;;;26.30;58.80;;;;;;5067909;28;20248;-68
2022/06/24 05:50:13;;;;;;;7.80;2.70;;;26.30;58.70;;;;;;5044732;28;20210;-67
2022/06/24 05:55:35;;;;;;;3.50;1.87;;;26.40;58.30;;;;;;5065013;28;20190;-67
2022/06/24 05:58:05;;;;;;;3.20;1.50;;;26.50;58.10;;;;;;5065372;28;20218;-67
2022/06/24 06:00:35;;;;;;;2.50;1.50;;;26.50;58.00;;;;;;5065445;28;20198;-67
2022/06/24 06:03:09;;;;;;;3.10;1.63;;;26.60;57.70;;;;;;5067805;28;20196;-68
2022/06/24 06:05:38;;;;;;;2.20;1.70;;;26.60;57.30;;;;;;5049317;28;20221;-69
2022/06/24 06:08:08;;;;;;;2.27;1.60;;;26.60;57.10;;;;;;5066442;28;20538;-68
2022/06/24 06:10:37;;;;;;;2.97;1.80;;;26.60;57.10;;;;;;5042106;28;20625;-68
2022/06/24 06:13:08;;;;;;;4.17;1.60;;;26.60;57.10;;;;;;5068369;28;20198;-68
2022/06/24 06:15:42;;;;;;;2.90;1.60;;;26.60;57.10;;;;;;5056956;28;20194;-68
2022/06/24 06:18:32;;;;;;;4.27;1.50;;;26.50;57.00;;;;;;5051334;28;20201;-68
2022/06/24 06:21:00;;;;;;;1.63;1.53;;;26.50;57.00;;;;;;5066107;28;20210;-67
2022/06/24 06:23:29;;;;;;;2.83;1.40;;;26.50;57.10;;;;;;5039517;28;20213;-68
2022/06/24 06:26:06;;;;;;;2.03;1.70;;;26.50;57.00;;;;;;5033876;28;20221;-67
2022/06/24 06:28:41;;;;;;;2.17;1.77;;;26.50;57.00;;;;;;5033955;28;20329;-67
2022/06/24 06:31:10;;;;;;;3.47;1.90;;;26.40;57.00;;;;;;5048359;28;20269;-67
2022/06/24 06:33:38;;;;;;;2.50;1.80;;;26.40;57.10;;;;;;5045655;28;20209;-67
2022/06/24 06:36:10;;;;;;;3.03;2.00;;;26.40;57.10;;;;;;5049013;28;20698;-68
2022/06/24 06:38:39;;;;;;;1.73;1.50;;;26.40;57.10;;;;;;5045907;28;20199;-68
2022/06/24 06:41:12;;;;;;;2.40;1.80;;;26.40;57.10;;;;;;5029289;28;20844;-68
2022/06/24 06:43:39;;;;;;;4.30;1.70;;;26.40;57.20;;;;;;5044193;28;20229;-68
2022/06/24 06:46:13;;;;;;;3.10;1.87;;;26.40;57.30;;;;;;5045152;28;20249;-68
2022/06/24 06:48:43;;;;;;;2.87;1.77;;;26.40;57.30;;;;;;5047647;28;20631;-68
2022/06/24 06:51:14;;;;;;;5.53;2.00;;;26.40;57.40;;;;;;5030705;28;20198;-68
2022/06/24 06:53:48;;;;;;;3.97;2.00;;;26.40;57.40;;;;;;5047535;28;20225;-69
2022/06/24 06:56:17;;;;;;;2.03;1.70;;;26.40;57.40;;;;;;5046387;28;20328;-69
2022/06/24 06:58:44;;;;;;;2.30;1.73;;;26.40;57.40;;;;;;5043766;28;20207;-68
2022/06/24 07:01:10;;;;;;;4.43;2.10;;;26.40;57.40;;;;;;5029081;28;20195;-69
2022/06/24 07:03:37;;;;;;;3.57;2.23;;;26.40;57.40;;;;;;5047001;28;20187;-68
2022/06/24 07:06:06;;;;;;;2.67;1.80;;;26.30;57.30;;;;;;5046649;28;20211;-68
2022/06/24 07:08:34;;;;;;;3.73;2.07;;;26.40;57.40;;;;;;5042440;28;20254;-68
2022/06/24 07:11:11;;;;;;;3.33;1.97;;;26.40;57.40;;;;;;5047493;28;20202;-68
2022/06/24 07:13:41;;;;;;;2.60;2.23;;;26.30;57.40;;;;;;5046217;28;20205;-68
2022/06/24 07:16:11;;;;;;;2.77;2.00;;;26.30;57.40;;;;;;5044111;28;20285;-68
2022/06/24 07:18:41;;;;;;;3.43;2.40;;;26.30;57.30;;;;;;5042907;28;20612;-68
2022/06/24 07:21:13;;;;;;;3.43;2.10;;;26.30;57.30;;;;;;5041916;28;20227;-68
2022/06/24 07:23:43;;;;;;;2.10;1.77;;;26.30;57.20;;;;;;5047867;28;20202;-68
2022/06/24 07:26:12;;;;;;;3.63;2.37;;;26.30;57.20;;;;;;5045078;28;20229;-68
2022/06/24 07:28:39;;;;;;;4.33;2.23;;;26.30;57.20;;;;;;5052119;28;20230;-67
2022/06/24 07:31:20;;;;;;;3.40;2.03;;;26.20;57.10;;;;;;5023761;28;20758;-68
2022/06/24 07:33:47;;;;;;;2.73;1.90;;;26.20;57.10;;;;;;5057377;28;20218;-69
2022/06/24 07:36:16;;;;;;;3.13;1.80;;;26.20;57.40;;;;;;5049846;28;20197;-68
2022/06/24 07:38:45;;;;;;;3.27;2.20;;;26.20;57.10;;;;;;5065433;28;20200;-68
2022/06/24 07:41:16;;;;;;;2.53;1.87;;;26.20;57.20;;;;;;5067177;28;20200;-68
2022/06/24 07:43:46;;;;;;;2.27;2.00;;;26.20;57.20;;;;;;5066901;28;20205;-68
2022/06/24 07:46:16;;;;;;;2.17;1.83;;;26.20;57.20;;;;;;5061183;28;20843;-68
2022/06/24 07:48:50;;;;;;;2.77;1.90;;;26.20;57.30;;;;;;5067104;28;20190;-68
2022/06/24 07:51:28;;;;;;;3.10;2.23;;;26.20;57.40;;;;;;5067590;28;20193;-68
2022/06/24 07:53:58;;;;;;;2.60;1.90;;;26.20;57.50;;;;;;5039671;28;20197;-68
2022/06/24 07:57:13;;;;;;;3.63;2.10;;;26.20;57.70;;;;;;5054747;28;20208;-68
2022/06/24 07:59:31;;;;;;;3.77;1.87;;;26.20;57.80;;;;;;5057439;28;20240;-68
2022/06/24 08:02:01;;;;;;;2.90;1.90;;;26.20;58.00;;;;;;5060293;28;20340;-68
2022/06/24 08:04:30;;;;;;;2.97;2.17;;;26.20;58.20;;;;;;5060687;28;20198;-69
2022/06/24 08:06:58;;;;;;;2.67;2.10;;;26.20;58.30;;;;;;5032942;28;20221;-68
2022/06/24 08:09:30;;;;;;;2.50;2.20;;;26.20;58.30;;;;;;5062469;28;20211;-67
2022/06/24 08:11:57;;;;;;;3.03;2.00;;;26.20;58.40;;;;;;5065171;28;20186;-68
2022/06/24 08:14:24;;;;;;;3.57;2.20;;;26.10;58.40;;;;;;5063100;28;20198;-68
2022/06/24 08:16:51;;;;;;;2.70;1.90;;;26.20;58.60;;;;;;5067333;28;20201;-68
2022/06/24 08:19:18;;;;;;;2.77;1.97;;;26.20;58.50;;;;;;5066401;28;20198;-67
2022/06/24 08:21:45;;;;;;;5.13;2.60;;;26.20;58.60;;;;;;5060887;28;20226;-66
2022/06/24 08:24:13;;;;;;;5.63;2.77;;;26.10;59.00;;;;;;5067422;28;20198;-70
2022/06/24 08:26:40;;;;;;;2.83;2.30;;;26.20;59.40;;;;;;5064647;28;20201;-69
2022/06/24 08:29:09;;;;;;;4.43;2.50;;;26.20;59.80;;;;;;5038821;28;20753;-68
2022/06/24 08:31:36;;;;;;;2.60;2.40;;;26.30;59.90;;;;;;5062834;28;20209;-66
2022/06/24 08:34:03;;;;;;;4.73;2.40;;;26.30;59.60;;;;;;5059081;28;20294;-69
2022/06/24 08:36:30;;;;;;;6.17;2.70;;;26.40;59.30;;;;;;5060201;28;20197;-72
2022/06/24 08:38:57;;;;;;;4.87;2.70;;;26.40;59.30;;;;;;5063262;28;20196;-72
2022/06/24 08:41:26;;;;;;;4.70;2.80;;;26.40;59.50;;;;;;5062145;28;20205;-69
2022/06/24 08:43:58;;;;;;;4.77;3.00;;;26.50;60.10;;;;;;5052329;28;20872;-68
2022/06/24 08:46:42;;;;;;;3.33;2.90;;;26.50;59.50;;;;;;5069167;28;20222;-67
2022/06/24 08:49:12;;;;;;;4.07;2.80;;;26.50;59.50;;;;;;5070116;28;20202;-73
2022/06/24 08:51:41;;;;;;;5.50;2.77;;;26.60;59.40;;;;;;5069932;28;20225;-68
2022/06/24 08:54:14;;;;;;;2.67;2.43;;;26.60;59.40;;;;;;5044649;28;20678;-69
2022/06/24 08:56:55;;;;;;;7.60;2.50;;;26.60;59.80;;;;;;5037006;28;20418;-68
2022/06/24 08:59:29;;;;;;;7.00;2.80;;;26.70;59.30;;;;;;5062208;28;20190;-68
2022/06/24 09:02:01;;;;;;;3.40;2.37;;;26.70;59.00;;;;;;5040763;28;20198;-68
2022/06/24 09:04:36;;;;;;;3.50;2.67;;;26.80;59.00;;;;;;5066614;28;20221;-70
2022/06/24 09:07:05;;;;;;;6.27;2.13;;;26.90;58.80;;;;;;5062264;28;20217;-68
2022/06/24 09:09:32;;;;;;;3.20;2.20;;;26.90;58.50;;;;;;5063011;28;20210;-69
2022/06/24 09:12:02;;;;;;;2.63;2.43;;;26.90;57.90;;;;;;5061482;28;20197;-71
2022/06/24 09:14:48;;;;;;;3.20;2.60;;;27.00;58.00;;;;;;5067134;28;20642;-71
2022/06/24 09:17:17;;;;;;;4.03;2.80;;;27.00;57.80;;;;;;5069769;28;20201;-68
2022/06/24 09:19:46;;;;;;;3.80;3.07;;;27.10;58.10;;;;;;5069301;28;20189;-67
2022/06/24 09:22:39;;;;;;;3.70;3.30;;;27.10;58.00;;;;;;5069935;28;20297;-68
2022/06/24 09:25:11;;;;;;;3.90;3.50;;;27.20;57.90;;;;;;5039659;28;20659;-69
2022/06/24 09:27:49;;;;;;;4.30;3.90;;;27.30;57.90;;;;;;5067401;28;20194;-67
2022/06/24 09:30:16;;;;;;;3.80;3.50;;;27.30;57.70;;;;;;5065142;28;20222;-69
2022/06/24 09:32:55;;;;;;;7.20;3.80;;;27.30;57.50;;;;;;5065189;28;20213;-69
2022/06/24 09:36:10;;;;;;;5.00;3.90;;;27.40;57.70;;;;;;5067712;28;20533;-69
2022/06/24 09:39:08;;;;;;;5.10;4.67;;;27.40;57.60;;;;;;5068627;28;20212;-70
2022/06/24 09:41:51;;;;;;;5.43;4.93;;;27.40;57.90;;;;;;5077255;28;20251;-69
2022/06/24 09:44:21;;;;;;;8.40;6.13;;;27.40;58.20;;;;;;5083255;28;20190;-69
2022/06/24 09:47:08;;;;;;;8.80;5.70;;;27.40;58.50;;;;;;5077238;28;20245;-70
2022/06/24 09:49:56;;;;;;;6.63;6.03;;;27.50;58.40;;;;;;5060479;28;20221;-69
2022/06/24 09:52:26;;;;;;;7.93;7.23;;;27.50;58.50;;;;;;5045342;28;20206;-69
2022/06/24 09:55:11;;;;;;;7.60;6.83;;;27.50;58.60;;;;;;5048405;28;20199;-69
2022/06/24 09:57:41;;;;;;;5.97;5.40;;;27.50;58.40;;;;;;5063408;28;20295;-70
2022/06/24 10:02:54;;;;;;;6.47;5.83;;;27.60;58.10;;;;;;5058123;28;20190;-70
2022/06/24 10:05:24;;;;;;;7.33;5.30;;;27.60;58.10;;;;;;5073492;28;20198;-69
2022/06/24 10:07:52;;;;;;;6.53;5.17;;;27.70;57.90;;;;;;5055737;28;20194;-69
2022/06/24 10:10:19;;;;;;;6.43;5.27;;;27.70;57.80;;;;;;5070450;28;20209;-69
2022/06/24 10:12:52;;;;;;;5.90;5.13;;;27.70;57.80;;;;;;5071056;28;20186;-70
2022/06/24 10:15:21;;;;;;;5.63;5.00;;;27.70;57.40;;;;;;5070186;28;20205;-69
2022/06/24 10:17:49;;;;;;;7.70;5.87;;;27.70;57.80;;;;;;5061656;28;20210;-70
2022/06/24 10:20:17;;;;;;;6.63;6.03;;;27.70;58.20;;;;;;5064690;28;20232;-69
2022/06/24 10:22:46;;;;;;;6.67;6.07;;;27.50;58.50;;;;;;5072735;28;20202;-69
2022/06/24 10:25:20;;;;;;;7.77;7.07;;;27.50;59.00;;;;;;5065487;28;20194;-66
2022/06/24 10:28:16;;;;;;;6.83;5.60;;;27.30;58.20;;;;;;5064806;28;20220;-69
2022/06/24 10:30:59;;;;;;;4.93;4.53;;;27.20;59.20;;;;;;4974976;28;20716;-69
2022/06/24 10:33:30;;;;;;;5.00;4.20;;;27.20;59.70;;;;;;5063747;28;20253;-69
2022/06/24 10:36:05;;;;;;;4.43;3.50;;;27.10;59.40;;;;;;5063857;28;20198;-69
2022/06/24 10:38:45;;;;;;;3.83;3.50;;;27.20;59.30;;;;;;5065889;28;20197;-69
2022/06/24 10:41:15;;;;;;;4.30;2.80;;;27.20;59.20;;;;;;5065336;28;20296;-69
2022/06/24 10:43:44;;;;;;;3.47;3.10;;;27.10;58.90;;;;;;5067107;28;20222;-69
2022/06/24 10:46:16;;;;;;;3.40;3.10;;;27.10;58.80;;;;;;5061316;28;20217;-69
2022/06/24 10:48:56;;;;;;;3.00;2.80;;;27.10;59.50;;;;;;5056338;28;20226;-70
2022/06/24 10:51:35;;;;;;;3.53;3.23;;;27.10;59.60;;;;;;5064611;28;20186;-69
2022/06/24 10:54:09;;;;;;;3.30;3.00;;;27.10;59.70;;;;;;5064072;28;20213;-69
2022/06/24 10:56:47;;;;;;;2.90;2.70;;;27.10;59.80;;;;;;5055405;28;21713;-69
2022/06/24 10:59:19;;;;;;;3.10;2.60;;;27.10;59.60;;;;;;5063613;28;20201;-70
2022/06/24 11:01:53;;;;;;;3.00;2.70;;;27.10;59.50;;;;;;5039060;28;20198;-69
2022/06/24 11:04:28;;;;;;;3.67;2.83;;;27.10;59.50;;;;;;5052845;28;20201;-73
2022/06/24 11:07:11;;;;;;;5.30;3.47;;;27.10;59.80;;;;;;5065881;28;20224;-69
2022/06/24 11:09:42;;;;;;;7.27;3.70;;;27.10;59.70;;;;;;5061979;28;20267;-71
2022/06/24 11:12:31;;;;;;;11.47;3.47;;;27.10;60.00;;;;;;5047555;28;20190;-70
2022/06/24 11:15:06;;;;;;;5.33;3.10;;;27.10;59.70;;;;;;5050004;28;20221;-70
2022/06/24 11:17:42;;;;;;;3.17;2.87;;;27.00;59.00;;;;;;5062644;28;20193;-71
2022/06/24 11:20:24;;;;;;;2.63;2.43;;;27.00;59.20;;;;;;5056212;28;20225;-70
2022/06/24 11:22:52;;;;;;;3.10;2.77;;;27.00;59.40;;;;;;5030789;28;20201;-68
2022/06/24 11:25:24;;;;;;;4.37;2.70;;;27.00;59.00;;;;;;5046516;28;20210;-68
2022/06/24 11:27:59;;;;;;;3.10;2.90;;;26.90;59.00;;;;;;5012386;28;20209;-69
2022/06/24 11:30:29;;;;;;;5.63;2.93;;;26.90;59.00;;;;;;5044506;28;20601;-71
2022/06/24 11:33:04;;;;;;;3.10;2.80;;;26.90;59.20;;;;;;5043174;28;20639;-71
2022/06/24 11:35:31;;;;;;;2.87;2.67;;;26.90;59.60;;;;;;5047915;28;20208;-71
2022/06/24 11:38:06;;;;;;;3.00;2.80;;;26.90;59.60;;;;;;5048116;28;20202;-71
2022/06/24 11:40:38;;;;;;;2.90;2.70;;;26.90;59.70;;;;;;5031106;28;20189;-72
2022/06/24 11:43:12;;;;;;;4.40;3.27;;;26.90;59.80;;;;;;5049440;28;20363;-72
2022/06/24 11:45:47;;;;;;;5.07;2.77;;;26.80;59.80;;;;;;5059706;28;20224;-69
2022/06/24 11:48:22;;;;;;;2.93;2.73;;;26.70;59.90;;;;;;5045589;28;20181;-69
2022/06/24 11:50:53;;;;;;;9.90;3.00;;;26.60;59.80;;;;;;5051279;28;20316;-69
2022/06/24 11:53:27;;;;;;;7.27;2.77;;;26.60;61.00;;;;;;5030800;28;20279;-71
2022/06/24 11:55:56;;;;;;;17.90;3.80;;;26.70;61.10;;;;;;5063204;28;20198;-65
2022/06/24 11:58:48;;;;;;;6.47;3.00;;;26.70;62.80;;;;;;5060241;28;20202;-66
2022/06/24 12:01:18;;;;;;;7.47;2.63;;;26.80;62.50;;;;;;5063985;28;20205;-66
2022/06/24 12:03:52;;;;;;;8.87;2.67;;;26.90;61.60;;;;;;5064016;28;20911;-68
2022/06/24 12:06:20;;;;;;;2.20;2.00;;;26.90;61.10;;;;;;5063066;28;20296;-68
2022/06/24 12:08:48;;;;;;;5.00;2.30;;;26.90;58.90;;;;;;5064255;28;20206;-68
2022/06/24 12:11:19;;;;;;;2.13;1.80;;;26.90;58.70;;;;;;5066562;28;20200;-68
2022/06/24 12:14:14;;;;;;;1.57;1.47;;;26.90;58.70;;;;;;5032144;28;20679;-66
2022/06/24 12:17:06;;;;;;;4.87;1.93;;;26.80;58.40;;;;;;5046696;28;20193;-67
2022/06/24 12:19:57;;;;;;;1.73;1.63;;;26.90;59.60;;;;;;5056203;28;20205;-67
2022/06/24 12:22:28;;;;;;;1.70;1.60;;;27.00;59.30;;;;;;5042891;28;20202;-67
2022/06/24 12:25:10;;;;;;;2.27;1.40;;;27.00;59.40;;;;;;5066198;28;20224;-68
2022/06/24 12:27:54;;;;;;;1.53;1.40;;;27.20;59.10;;;;;;5063085;28;20324;-67
2022/06/24 12:30:27;;;;;;;1.87;1.30;;;27.20;58.80;;;;;;5052503;28;20812;-67
2022/06/24 12:33:00;;;;;;;1.50;1.33;;;27.20;56.90;;;;;;5061294;28;20208;-70
2022/06/24 12:35:34;;;;;;;1.43;1.33;;;27.30;57.50;;;;;;5032995;28;20189;-68
2022/06/24 12:38:14;;;;;;;1.60;1.30;;;27.30;57.20;;;;;;5056138;28;20200;-69
2022/06/24 12:40:44;;;;;;;3.47;1.00;;;27.30;57.10;;;;;;5058080;28;20202;-68
2022/06/24 12:43:14;;;;;;;1.10;1.00;;;27.20;54.10;;;;;;5057994;28;20198;-69
2022/06/24 12:45:45;;;;;;;2.93;1.10;;;27.10;53.80;;;;;;5060669;28;20213;-71
2022/06/24 12:51:13;;;;;;;2.20;1.27;;;27.10;56.10;;;;;;5039126;28;20715;-67
2022/06/24 12:53:54;;;;;;;3.03;1.00;;;27.20;56.10;;;;;;5052922;28;20225;-68
2022/06/24 12:56:32;;;;;;;1.23;1.13;;;27.00;54.60;;;;;;5053034;28;20208;-67
2022/06/24 12:59:16;;;;;;;7.30;1.43;;;27.10;56.40;;;;;;5060390;28;20240;-69
2022/06/24 13:01:48;;;;;;;1.83;1.37;;;27.20;57.30;;;;;;5061560;28;20201;-68
2022/06/24 13:04:18;;;;;;;1.93;1.40;;;27.30;57.30;;;;;;5057925;28;20253;-70
2022/06/24 13:06:45;;;;;;;1.57;1.20;;;27.40;57.20;;;;;;5063221;28;20234;-66
2022/06/24 13:09:15;;;;;;;3.10;1.40;;;27.40;56.50;;;;;;5057476;28;20198;-67
2022/06/24 13:11:46;;;;;;;2.33;1.30;;;27.50;57.30;;;;;;5058739;28;20259;-69
2022/06/24 13:14:15;;;;;;;2.87;1.60;;;27.40;54.60;;;;;;5051637;28;20199;-69
2022/06/24 13:16:45;;;;;;;3.40;2.10;;;27.50;54.90;;;;;;5057707;28;20216;-70
2022/06/24 13:19:19;;;;;;;5.37;4.00;;;27.50;56.30;;;;;;5058032;28;20205;-69
2022/06/24 13:21:50;;;;;;;6.70;3.23;;;27.50;56.50;;;;;;5052716;28;20329;-70
2022/06/24 13:24:21;;;;;;;7.27;3.07;;;27.60;56.10;;;;;;5051543;28;20198;-72
2022/06/24 13:26:49;;;;;;;2.37;2.17;;;27.60;55.80;;;;;;5061769;28;20224;-72
2022/06/24 13:29:20;;;;;;;3.57;1.93;;;27.60;55.40;;;;;;5024880;28;20271;-72